createdAt,value
2023-03-08T00:00:12.101Z,1.19
2023-03-08T00:01:10.821Z,1.16
2023-03-08T00:02:10.802Z,1.15
2023-03-08T00:03:10.780Z,1.15
2023-03-08T00:04:10.181Z,-39.94
2023-03-08T00:05:10.104Z,-39.94
2023-03-08T00:06:10.765Z,-40.00
2023-03-08T00:07:10.062Z,-40.00
2023-03-08T00:08:10.858Z,-40.00
2023-03-08T00:09:10.055Z,-40.00
2023-03-08T00:10:10.720Z,-40.00
2023-03-08T00:11:10.039Z,-40.00
2023-03-08T00:12:10.726Z,-40.00
2023-03-08T00:13:10.673Z,-40.00
2023-03-08T00:14:10.680Z,-39.94
2023-03-08T00:15:10.665Z,-40.00
2023-03-08T00:16:10.704Z,-40.00
2023-03-08T00:17:10.643Z,1.04
2023-03-08T00:18:10.621Z,1.03
2023-03-08T00:19:10.628Z,1.03
2023-03-08T00:20:10.612Z,-39.94
2023-03-08T00:21:10.609Z,-40.00
2023-03-08T00:22:10.601Z,-40.00
2023-03-08T00:23:10.573Z,-40.00
2023-03-08T00:24:10.571Z,-40.00
2023-03-08T00:25:10.573Z,-40.00
2023-03-08T00:26:10.558Z,0.97
2023-03-08T00:27:10.541Z,0.96
2023-03-08T00:28:10.512Z,0.96
2023-03-08T00:29:10.808Z,0.96
2023-03-08T00:30:10.507Z,-40.00
2023-03-08T00:31:10.537Z,-40.00
2023-03-08T00:32:10.528Z,-40.00
2023-03-08T00:33:10.463Z,-40.00
2023-03-08T00:34:09.783Z,-40.00
2023-03-08T00:35:09.760Z,-40.00
2023-03-08T00:36:09.793Z,-40.00
2023-03-08T00:37:10.429Z,-39.94
2023-03-08T00:38:10.407Z,-40.00
2023-03-08T00:39:10.414Z,1.07
2023-03-08T00:40:10.415Z,1.07
2023-03-08T00:41:10.402Z,1.07
2023-03-08T00:42:09.702Z,1.10
2023-03-08T00:43:10.361Z,-39.94
2023-03-08T00:44:10.360Z,-40.00
2023-03-08T00:45:10.352Z,-39.94
2023-03-08T00:46:09.666Z,-40.00
2023-03-08T00:47:10.331Z,-40.00
2023-03-08T00:48:10.304Z,-40.00
2023-03-08T00:49:09.633Z,-40.00
2023-03-08T00:50:09.720Z,-40.00
2023-03-08T00:51:09.605Z,-40.00
2023-03-08T00:52:10.282Z,-40.00
2023-03-08T00:53:10.254Z,-40.00
2023-03-08T00:54:10.263Z,-40.00
2023-03-08T00:55:09.570Z,-40.00
2023-03-08T00:56:10.243Z,1.15
2023-03-08T00:57:09.542Z,1.15
2023-03-08T00:58:09.553Z,1.14
2023-03-08T00:59:10.206Z,-40.00
2023-03-08T01:00:10.193Z,-40.00
2023-03-08T01:01:10.243Z,-40.00
2023-03-08T01:02:10.181Z,-40.00
2023-03-08T01:03:10.146Z,-40.00
2023-03-08T01:04:10.200Z,-40.00
2023-03-08T01:05:11.403Z,-40.00
2023-03-08T01:06:10.141Z,-40.00
2023-03-08T01:07:09.426Z,-40.00
2023-03-08T01:08:10.100Z,-40.00
2023-03-08T01:09:09.421Z,-40.00
2023-03-08T01:10:09.403Z,-39.94
2023-03-08T01:11:09.385Z,-40.00
2023-03-08T01:12:10.083Z,-39.94
2023-03-08T01:13:10.042Z,-40.00
2023-03-08T01:14:10.046Z,-40.00
2023-03-08T01:15:10.042Z,-40.00
2023-03-08T01:16:11.171Z,1.34
2023-03-08T01:17:10.022Z,1.33
2023-03-08T01:18:09.364Z,1.33
2023-03-08T01:19:09.995Z,-40.00
2023-03-08T01:20:09.999Z,-39.94
2023-03-08T01:21:09.286Z,-40.00
2023-03-08T01:22:09.969Z,-40.00
2023-03-08T01:23:09.287Z,-40.00
2023-03-08T01:24:09.960Z,-40.00
2023-03-08T01:25:09.926Z,-40.00
2023-03-08T01:26:09.927Z,-40.00
2023-03-08T01:27:09.922Z,-40.00
2023-03-08T01:28:09.887Z,-40.00
2023-03-08T01:29:09.887Z,-40.00
2023-03-08T01:30:09.885Z,-40.00
2023-03-08T01:31:09.205Z,-40.00
2023-03-08T01:32:09.912Z,-39.94
2023-03-08T01:33:09.855Z,-40.00
2023-03-08T01:34:09.825Z,-40.00
2023-03-08T01:35:09.148Z,-39.36
2023-03-08T01:36:09.875Z,-40.00
2023-03-08T01:37:09.809Z,-39.94
2023-03-08T01:38:09.798Z,-40.00
2023-03-08T01:39:09.777Z,1.37
2023-03-08T01:40:09.109Z,1.36
2023-03-08T01:41:09.774Z,1.36
2023-03-08T01:42:09.762Z,-39.94
2023-03-08T01:43:09.754Z,-40.00
2023-03-08T01:44:09.716Z,-40.00
2023-03-08T01:45:09.976Z,-40.00
2023-03-08T01:46:09.041Z,-40.00
2023-03-08T01:47:09.709Z,-40.00
2023-03-08T01:48:09.017Z,-40.00
2023-03-08T01:49:09.714Z,-40.00
2023-03-08T01:50:09.002Z,-40.00
2023-03-08T01:51:08.976Z,-40.00
2023-03-08T01:52:09.169Z,1.36
2023-03-08T01:53:09.646Z,1.32
2023-03-08T01:54:09.040Z,1.33
2023-03-08T01:55:09.869Z,1.32
2023-03-08T01:56:08.924Z,-39.94
2023-03-08T01:57:08.930Z,-39.94
2023-03-08T01:58:09.587Z,-40.00
2023-03-08T01:59:08.936Z,-40.00
2023-03-08T02:00:09.582Z,-40.00
2023-03-08T02:01:09.564Z,-40.00
2023-03-08T02:02:08.878Z,-40.00
2023-03-08T02:03:09.547Z,-40.00
2023-03-08T02:04:09.515Z,1.32
2023-03-08T02:05:10.800Z,1.28
2023-03-08T02:06:08.833Z,1.28
2023-03-08T02:07:09.508Z,1.26
2023-03-08T02:08:09.493Z,1.26
2023-03-08T02:09:09.477Z,1.26
2023-03-08T02:10:09.479Z,1.29
2023-03-08T02:11:09.473Z,-39.94
2023-03-08T02:12:09.449Z,-40.00
2023-03-08T02:13:09.448Z,-40.00
2023-03-08T02:14:09.410Z,-40.00
2023-03-08T02:15:10.699Z,-40.00
2023-03-08T02:16:08.745Z,-40.00
2023-03-08T02:17:09.403Z,-40.00
2023-03-08T02:18:09.403Z,-40.00
2023-03-08T02:19:08.727Z,-40.00
2023-03-08T02:20:09.369Z,-40.00
2023-03-08T02:21:08.676Z,-40.00
2023-03-08T02:22:09.354Z,-40.00
2023-03-08T02:23:09.346Z,-40.00
2023-03-08T02:24:09.306Z,-40.00
2023-03-08T02:25:09.304Z,-40.00
2023-03-08T02:26:09.306Z,-40.00
2023-03-08T02:27:08.615Z,-40.00
2023-03-08T02:28:08.598Z,-40.00
2023-03-08T02:29:09.264Z,-40.00
2023-03-08T02:30:09.280Z,125.00
2023-03-08T02:31:08.604Z,-40.00
2023-03-08T02:32:08.597Z,-40.00
2023-03-08T02:33:09.243Z,-40.00
2023-03-08T02:34:09.219Z,-39.94
2023-03-08T02:35:09.240Z,-40.00
2023-03-08T02:36:09.244Z,-40.00
2023-03-08T02:37:09.256Z,-40.00
2023-03-08T02:38:09.189Z,-40.00
2023-03-08T02:39:09.166Z,-40.00
2023-03-08T02:40:08.468Z,-39.98
2023-03-08T02:41:09.159Z,-40.00
2023-03-08T02:42:09.154Z,-40.00
2023-03-08T02:43:09.141Z,-40.00
2023-03-08T02:44:09.102Z,-39.94
2023-03-08T02:45:10.350Z,-40.00
2023-03-08T02:46:09.118Z,-40.00
2023-03-08T02:47:09.100Z,-40.00
2023-03-08T02:48:09.080Z,-40.00
2023-03-08T02:49:10.340Z,-39.36
2023-03-08T02:50:09.060Z,-39.94
2023-03-08T02:51:08.369Z,-39.94
2023-03-08T02:52:09.052Z,-40.00
2023-03-08T02:53:09.086Z,-40.00
2023-03-08T02:54:09.007Z,-40.00
2023-03-08T02:55:10.269Z,-40.00
2023-03-08T02:56:08.332Z,-40.00
2023-03-08T02:57:08.998Z,-40.00
2023-03-08T02:58:08.985Z,-40.00
2023-03-08T02:59:08.981Z,1.32
2023-03-08T03:00:08.948Z,-40.00
2023-03-08T03:01:08.950Z,-40.00
2023-03-08T03:02:08.931Z,-40.00
2023-03-08T03:03:08.268Z,-40.00
2023-03-08T03:04:08.910Z,-40.00
2023-03-08T03:05:10.172Z,-40.00
2023-03-08T03:06:08.906Z,-40.00
2023-03-08T03:07:08.198Z,-40.00
2023-03-08T03:08:08.873Z,-40.00
2023-03-08T03:09:08.179Z,-40.00
2023-03-08T03:10:08.189Z,-39.94
2023-03-08T03:11:08.853Z,-40.00
2023-03-08T03:12:08.156Z,-40.00
2023-03-08T03:13:08.816Z,-39.94
2023-03-08T03:14:08.171Z,-40.00
2023-03-08T03:15:08.136Z,-39.94
2023-03-08T03:16:08.827Z,-40.00
2023-03-08T03:17:08.779Z,-40.00
2023-03-08T03:18:08.760Z,-40.00
2023-03-08T03:19:08.746Z,-40.00
2023-03-08T03:20:08.076Z,-40.00
2023-03-08T03:21:08.728Z,-40.00
2023-03-08T03:22:08.744Z,-40.00
2023-03-08T03:23:08.018Z,-40.00
2023-03-08T03:24:08.698Z,-40.00
2023-03-08T03:25:08.673Z,-39.94
2023-03-08T03:26:07.975Z,-40.00
2023-03-08T03:27:08.673Z,-40.00
2023-03-08T03:28:08.669Z,-40.00
2023-03-08T03:29:08.645Z,-40.00
2023-03-08T03:30:08.620Z,-40.00
2023-03-08T03:31:08.712Z,-39.94
2023-03-08T03:32:07.946Z,-40.00
2023-03-08T03:33:08.599Z,-40.00
2023-03-08T03:34:07.945Z,-40.00
2023-03-08T03:35:09.847Z,-40.00
2023-03-08T03:36:08.586Z,-40.00
2023-03-08T03:37:08.555Z,-39.94
2023-03-08T03:38:07.856Z,-40.00
2023-03-08T03:39:07.858Z,-40.00
2023-03-08T03:40:08.508Z,-40.00
2023-03-08T03:41:08.513Z,-40.00
2023-03-08T03:42:09.757Z,-39.94
2023-03-08T03:43:08.485Z,-40.00
2023-03-08T03:44:07.823Z,-40.00
2023-03-08T03:45:09.739Z,-40.00
2023-03-08T03:46:08.495Z,-39.94
2023-03-08T03:47:08.449Z,-40.00
2023-03-08T03:48:07.750Z,1.29
2023-03-08T03:49:08.429Z,-39.94
2023-03-08T03:50:07.761Z,-40.00
2023-03-08T03:51:07.721Z,-40.00
2023-03-08T03:52:08.682Z,-40.00
2023-03-08T03:53:08.394Z,-40.00
2023-03-08T03:54:08.383Z,-40.00
2023-03-08T03:55:08.644Z,1.25
2023-03-08T03:56:08.363Z,1.22
2023-03-08T03:57:08.356Z,1.22
2023-03-08T03:58:07.683Z,-40.00
2023-03-08T03:59:08.331Z,-39.94
2023-03-08T04:00:08.298Z,-40.00
2023-03-08T04:01:07.628Z,-40.00
2023-03-08T04:02:07.646Z,-40.00
2023-03-08T04:03:08.439Z,-40.00
2023-03-08T04:04:08.280Z,-40.00
2023-03-08T04:05:09.537Z,-40.00
2023-03-08T04:06:08.270Z,-40.00
2023-03-08T04:07:07.568Z,1.24
2023-03-08T04:08:07.578Z,1.22
2023-03-08T04:09:08.230Z,1.22
2023-03-08T04:10:08.201Z,1.21
2023-03-08T04:11:08.200Z,1.22
2023-03-08T04:12:08.200Z,1.24
2023-03-08T04:13:08.196Z,1.24
2023-03-08T04:14:07.501Z,1.25
2023-03-08T04:15:09.443Z,1.26
2023-03-08T04:16:08.176Z,1.28
2023-03-08T04:17:08.144Z,1.28
2023-03-08T04:18:08.144Z,1.28
2023-03-08T04:19:07.432Z,1.32
2023-03-08T04:20:08.111Z,1.32
2023-03-08T04:21:07.434Z,1.33
2023-03-08T04:22:08.330Z,1.34
2023-03-08T04:23:08.080Z,1.32
2023-03-08T04:24:07.394Z,1.33
2023-03-08T04:25:09.341Z,1.33
2023-03-08T04:26:07.370Z,1.34
2023-03-08T04:27:09.304Z,1.33
2023-03-08T04:28:07.332Z,1.33
2023-03-08T04:29:07.342Z,1.32
2023-03-08T04:30:07.994Z,1.28
2023-03-08T04:31:08.046Z,1.28
2023-03-08T04:32:08.107Z,1.28
2023-03-08T04:33:07.978Z,1.25
2023-03-08T04:34:07.290Z,1.25
2023-03-08T04:35:07.941Z,1.25
2023-03-08T04:36:07.979Z,-40.00
2023-03-08T04:37:07.938Z,-39.94
2023-03-08T04:38:07.925Z,-40.00
2023-03-08T04:39:07.917Z,-40.00
2023-03-08T04:40:07.882Z,-39.94
2023-03-08T04:41:07.888Z,-39.94
2023-03-08T04:42:07.872Z,-39.94
2023-03-08T04:43:07.254Z,-39.94
2023-03-08T04:44:07.852Z,-39.94
2023-03-08T04:45:07.181Z,-40.00
2023-03-08T04:46:08.124Z,-40.00
2023-03-08T04:47:08.092Z,-39.94
2023-03-08T04:48:08.063Z,-39.94
2023-03-08T04:49:07.804Z,-39.94
2023-03-08T04:50:07.780Z,-39.94
2023-03-08T04:51:08.043Z,-39.94
2023-03-08T04:52:07.809Z,-40.00
2023-03-08T04:53:09.007Z,-40.00
2023-03-08T04:54:07.052Z,-40.00
2023-03-08T04:55:07.067Z,-40.00
2023-03-08T04:56:07.725Z,-40.00
2023-03-08T04:57:07.721Z,-40.00
2023-03-08T04:58:07.704Z,-40.00
2023-03-08T04:59:07.023Z,-40.00
2023-03-08T05:00:07.681Z,-40.00
2023-03-08T05:01:06.996Z,-40.00
2023-03-08T05:02:07.078Z,-39.94
2023-03-08T05:03:07.669Z,-39.94
2023-03-08T05:04:07.652Z,-39.94
2023-03-08T05:05:07.659Z,-40.00
2023-03-08T05:06:07.624Z,-40.00
2023-03-08T05:07:06.945Z,-40.00
2023-03-08T05:08:07.607Z,-40.00
2023-03-08T05:09:07.594Z,-40.00
2023-03-08T05:10:07.568Z,-40.00
2023-03-08T05:11:07.573Z,-40.00
2023-03-08T05:12:07.566Z,-40.00
2023-03-08T05:13:07.557Z,-40.00
2023-03-08T05:14:07.545Z,-40.00
2023-03-08T05:15:07.516Z,-40.00
2023-03-08T05:16:07.578Z,-40.00
2023-03-08T05:17:07.522Z,-40.00
2023-03-08T05:18:07.496Z,-40.00
2023-03-08T05:19:07.495Z,-40.00
2023-03-08T05:20:06.818Z,-40.00
2023-03-08T05:21:07.736Z,-39.94
2023-03-08T05:22:07.494Z,-40.00
2023-03-08T05:23:07.452Z,-40.00
2023-03-08T05:24:07.440Z,-40.00
2023-03-08T05:25:06.759Z,-40.00
2023-03-08T05:26:07.411Z,-40.00
2023-03-08T05:27:07.408Z,-40.00
2023-03-08T05:28:07.396Z,-40.00
2023-03-08T05:29:07.392Z,1.22
2023-03-08T05:30:06.688Z,1.22
2023-03-08T05:31:06.692Z,1.22
2023-03-08T05:32:07.398Z,1.21
2023-03-08T05:33:06.677Z,1.19
2023-03-08T05:34:07.336Z,1.18
2023-03-08T05:35:07.324Z,1.19
2023-03-08T05:36:06.688Z,1.18
2023-03-08T05:37:07.302Z,1.16
2023-03-08T05:38:07.296Z,1.15
2023-03-08T05:39:07.282Z,1.10
2023-03-08T05:40:07.266Z,1.07
2023-03-08T05:41:07.259Z,1.07
2023-03-08T05:42:07.253Z,1.07
2023-03-08T05:43:07.249Z,1.06
2023-03-08T05:44:06.548Z,1.07
2023-03-08T05:45:07.280Z,1.07
2023-03-08T05:46:07.271Z,1.07
2023-03-08T05:47:07.206Z,1.07
2023-03-08T05:48:07.198Z,1.07
2023-03-08T05:49:07.178Z,1.07
2023-03-08T05:50:07.169Z,-40.00
2023-03-08T05:51:06.528Z,-40.00
2023-03-08T05:52:07.147Z,-40.00
2023-03-08T05:53:06.449Z,-40.00
2023-03-08T05:54:06.445Z,-40.00
2023-03-08T05:55:07.120Z,-39.94
2023-03-08T05:56:07.086Z,-40.00
2023-03-08T05:57:06.433Z,-40.00
2023-03-08T05:58:07.088Z,-40.00
2023-03-08T05:59:07.065Z,-40.00
2023-03-08T06:00:07.065Z,-40.00
2023-03-08T06:01:07.031Z,-39.94
2023-03-08T06:02:07.075Z,-39.94
2023-03-08T06:03:07.108Z,-40.00
2023-03-08T06:04:07.039Z,-40.00
2023-03-08T06:05:07.012Z,-40.00
2023-03-08T06:06:06.984Z,-40.00
2023-03-08T06:07:06.329Z,-40.00
2023-03-08T06:08:06.982Z,-39.94
2023-03-08T06:09:06.988Z,-40.00
2023-03-08T06:10:06.953Z,-40.00
2023-03-08T06:11:06.924Z,-40.00
2023-03-08T06:12:06.933Z,-40.00
2023-03-08T06:13:06.252Z,-40.00
2023-03-08T06:14:06.917Z,-40.00
2023-03-08T06:15:06.906Z,-40.00
2023-03-08T06:16:06.876Z,-40.00
2023-03-08T06:17:06.888Z,-39.96
2023-03-08T06:18:06.873Z,-40.00
2023-03-08T06:19:06.868Z,-40.00
2023-03-08T06:20:06.856Z,-40.00
2023-03-08T06:21:06.836Z,-40.00
2023-03-08T06:22:06.836Z,-40.00
2023-03-08T06:23:06.822Z,-40.00
2023-03-08T06:24:06.115Z,-39.94
2023-03-08T06:25:06.795Z,-40.00
2023-03-08T06:26:07.094Z,-39.94
2023-03-08T06:27:06.784Z,-40.00
2023-03-08T06:28:06.776Z,-40.00
2023-03-08T06:29:06.756Z,-40.00
2023-03-08T06:30:06.750Z,-40.00
2023-03-08T06:31:06.099Z,-40.00
2023-03-08T06:32:06.772Z,-40.00
2023-03-08T06:33:06.095Z,-40.00
2023-03-08T06:34:06.031Z,-40.00
2023-03-08T06:35:06.701Z,-39.94
2023-03-08T06:36:06.048Z,-40.00
2023-03-08T06:37:06.003Z,-40.00
2023-03-08T06:38:06.697Z,-40.00
2023-03-08T06:39:06.663Z,-40.00
2023-03-08T06:40:06.651Z,-40.00
2023-03-08T06:41:06.623Z,-40.00
2023-03-08T06:42:05.976Z,-40.00
2023-03-08T06:43:05.994Z,-40.00
2023-03-08T06:44:06.625Z,-39.94
2023-03-08T06:45:06.606Z,-40.00
2023-03-08T06:46:06.670Z,-40.00
2023-03-08T06:47:06.594Z,-40.00
2023-03-08T06:48:06.579Z,-40.00
2023-03-08T06:49:06.568Z,-40.00
2023-03-08T06:50:06.573Z,-40.00
2023-03-08T06:51:06.527Z,-40.00
2023-03-08T06:52:06.572Z,-40.00
2023-03-08T06:53:06.521Z,-39.94
2023-03-08T06:54:05.828Z,-40.00
2023-03-08T06:55:05.829Z,-40.00
2023-03-08T06:56:06.476Z,-40.00
2023-03-08T06:57:06.878Z,-40.00
2023-03-08T06:58:07.709Z,-40.00
2023-03-08T06:59:06.480Z,-40.00
2023-03-08T07:00:06.722Z,-40.00
2023-03-08T07:01:05.886Z,-40.00
2023-03-08T07:02:06.420Z,-40.00
2023-03-08T07:03:06.663Z,-40.00
2023-03-08T07:04:06.421Z,-40.00
2023-03-08T07:05:05.707Z,-40.00
2023-03-08T07:06:06.371Z,-40.00
2023-03-08T07:07:05.706Z,-40.00
2023-03-08T07:08:06.356Z,-40.00
2023-03-08T07:09:06.343Z,-40.00
2023-03-08T07:10:06.334Z,-39.94
2023-03-08T07:11:06.317Z,-40.00
2023-03-08T07:12:07.777Z,-40.00
2023-03-08T07:13:06.312Z,-39.94
2023-03-08T07:14:05.632Z,-40.00
2023-03-08T07:15:06.277Z,-39.36
2023-03-08T07:16:06.313Z,-39.94
2023-03-08T07:17:06.263Z,-40.00
2023-03-08T07:18:05.574Z,-40.00
2023-03-08T07:19:05.579Z,-40.00
2023-03-08T07:20:06.225Z,1.26
2023-03-08T07:21:06.218Z,-39.94
2023-03-08T07:22:06.205Z,-40.00
2023-03-08T07:23:06.203Z,-40.00
2023-03-08T07:24:05.484Z,-40.00
2023-03-08T07:25:06.176Z,-40.00
2023-03-08T07:26:06.147Z,-39.94
2023-03-08T07:27:06.155Z,-40.00
2023-03-08T07:28:06.146Z,-40.00
2023-03-08T07:29:06.134Z,-40.00
2023-03-08T07:30:05.445Z,-40.00
2023-03-08T07:31:05.444Z,-40.00
2023-03-08T07:32:06.269Z,-40.00
2023-03-08T07:33:06.132Z,-40.00
2023-03-08T07:34:06.085Z,-40.00
2023-03-08T07:35:06.072Z,-40.00
2023-03-08T07:36:06.096Z,-40.00
2023-03-08T07:37:06.055Z,-40.00
2023-03-08T07:38:06.046Z,-40.00
2023-03-08T07:39:06.029Z,-40.00
2023-03-08T07:40:06.017Z,-40.00
2023-03-08T07:41:05.994Z,-40.00
2023-03-08T07:42:05.317Z,-40.00
2023-03-08T07:43:05.319Z,-40.00
2023-03-08T07:44:05.985Z,-40.00
2023-03-08T07:45:05.969Z,-40.00
2023-03-08T07:46:05.953Z,-40.00
2023-03-08T07:47:05.949Z,-40.00
2023-03-08T07:48:05.267Z,-39.94
2023-03-08T07:49:05.922Z,-39.94
2023-03-08T07:50:05.914Z,-40.00
2023-03-08T07:51:05.892Z,-40.00
2023-03-08T07:52:05.897Z,-40.00
2023-03-08T07:53:05.882Z,-40.00
2023-03-08T07:54:07.122Z,-40.00
2023-03-08T07:55:05.235Z,-39.94
2023-03-08T07:56:05.833Z,-40.00
2023-03-08T07:57:05.842Z,-39.36
2023-03-08T07:58:05.840Z,-40.00
2023-03-08T07:59:05.134Z,-40.00
2023-03-08T08:00:05.815Z,-40.00
2023-03-08T08:01:05.792Z,-40.00
2023-03-08T08:02:05.791Z,-39.94
2023-03-08T08:03:06.063Z,-40.00
2023-03-08T08:04:05.794Z,-40.00
2023-03-08T08:05:05.201Z,-40.00
2023-03-08T08:06:05.738Z,-40.00
2023-03-08T08:07:05.735Z,-39.94
2023-03-08T08:08:05.737Z,-40.00
2023-03-08T08:09:05.716Z,-39.94
2023-03-08T08:10:05.709Z,-40.00
2023-03-08T08:11:05.675Z,-40.00
2023-03-08T08:12:05.053Z,-39.94
2023-03-08T08:13:05.673Z,-40.00
2023-03-08T08:14:05.665Z,-40.00
2023-03-08T08:15:05.658Z,-40.00
2023-03-08T08:16:05.688Z,-40.00
2023-03-08T08:17:05.616Z,-40.00
2023-03-08T08:18:05.613Z,-40.00
2023-03-08T08:19:05.613Z,-40.00
2023-03-08T08:20:05.596Z,-40.00
2023-03-08T08:21:05.585Z,-40.00
2023-03-08T08:22:05.562Z,-40.00
2023-03-08T08:23:04.874Z,-40.00
2023-03-08T08:24:04.887Z,-40.00
2023-03-08T08:25:05.536Z,-40.00
2023-03-08T08:26:05.541Z,-40.00
2023-03-08T08:27:04.853Z,-40.00
2023-03-08T08:28:04.818Z,-40.00
2023-03-08T08:29:04.836Z,-40.00
2023-03-08T08:30:05.505Z,-39.94
2023-03-08T08:31:05.501Z,-40.00
2023-03-08T08:32:05.526Z,-39.94
2023-03-08T08:33:05.454Z,-40.00
2023-03-08T08:34:04.756Z,-40.00
2023-03-08T08:35:04.748Z,-39.94
2023-03-08T08:36:05.461Z,-40.00
2023-03-08T08:37:05.401Z,-40.00
2023-03-08T08:38:06.687Z,-40.00
2023-03-08T08:39:04.725Z,-40.00
2023-03-08T08:40:04.714Z,-40.00
2023-03-08T08:41:05.370Z,-40.00
2023-03-08T08:42:04.695Z,-39.94
2023-03-08T08:43:05.345Z,-40.00
2023-03-08T08:44:05.340Z,-40.00
2023-03-08T08:45:05.325Z,-40.00
2023-03-08T08:46:04.705Z,-40.00
2023-03-08T08:47:05.286Z,-40.00
2023-03-08T08:48:05.294Z,-39.94
2023-03-08T08:49:04.586Z,-40.00
2023-03-08T08:50:05.276Z,-40.00
2023-03-08T08:51:05.274Z,-40.00
2023-03-08T08:52:04.598Z,-40.00
2023-03-08T08:53:05.267Z,-40.00
2023-03-08T08:54:05.266Z,-40.00
2023-03-08T08:55:05.216Z,-39.94
2023-03-08T08:56:08.395Z,-40.00
2023-03-08T08:57:05.526Z,-40.00
2023-03-08T08:58:05.229Z,-40.00
2023-03-08T08:59:05.184Z,-40.00
2023-03-08T09:00:05.169Z,-40.00
2023-03-08T09:01:04.484Z,-40.00
2023-03-08T09:02:05.159Z,-40.00
2023-03-08T09:03:05.133Z,-40.00
2023-03-08T09:04:05.190Z,-34.85
2023-03-08T09:05:05.226Z,-40.00
2023-03-08T09:06:05.117Z,-40.00
2023-03-08T09:07:05.076Z,-40.00
2023-03-08T09:08:06.338Z,-40.00
2023-03-08T09:09:04.406Z,-40.00
2023-03-08T09:10:04.407Z,-40.00
2023-03-08T09:11:05.048Z,-40.00
2023-03-08T09:12:04.398Z,-40.00
2023-03-08T09:13:05.070Z,-40.00
2023-03-08T09:14:04.337Z,-40.00
2023-03-08T09:15:05.017Z,-40.00
2023-03-08T09:16:05.039Z,-40.00
2023-03-08T09:17:04.327Z,-40.00
2023-03-08T09:18:04.311Z,-40.00
2023-03-08T09:19:04.970Z,-40.00
2023-03-08T09:20:04.962Z,-40.00
2023-03-08T09:21:04.967Z,-40.00
2023-03-08T09:22:04.282Z,-40.00
2023-03-08T09:23:04.942Z,-40.00
2023-03-08T09:24:04.230Z,-40.00
2023-03-08T09:25:04.911Z,-40.00
2023-03-08T09:26:04.902Z,-40.00
2023-03-08T09:27:04.237Z,-40.00
2023-03-08T09:28:04.204Z,-40.00
2023-03-08T09:29:04.930Z,-40.00
2023-03-08T09:30:04.854Z,-40.00
2023-03-08T09:31:04.849Z,-39.94
2023-03-08T09:32:04.926Z,-40.00
2023-03-08T09:33:04.832Z,-40.00
2023-03-08T09:34:04.854Z,-40.00
2023-03-08T09:35:04.798Z,-40.00
2023-03-08T09:36:04.791Z,-40.00
2023-03-08T09:37:04.775Z,-40.00
2023-03-08T09:38:04.115Z,-40.00
2023-03-08T09:39:04.097Z,-40.00
2023-03-08T09:40:04.750Z,-40.00
2023-03-08T09:41:04.083Z,-40.00
2023-03-08T09:42:04.728Z,-40.00
2023-03-08T09:43:04.727Z,-40.00
2023-03-08T09:44:04.701Z,-40.00
2023-03-08T09:45:05.851Z,-40.00
2023-03-08T09:46:04.717Z,-40.00
2023-03-08T09:47:04.652Z,-40.00
2023-03-08T09:48:05.043Z,-40.00
2023-03-08T09:49:04.005Z,-40.00
2023-03-08T09:50:03.963Z,-40.00
2023-03-08T09:51:03.951Z,-40.00
2023-03-08T09:52:03.963Z,-40.00
2023-03-08T09:53:03.938Z,-40.00
2023-03-08T09:54:03.915Z,-39.94
2023-03-08T09:55:04.668Z,-40.00
2023-03-08T09:56:04.597Z,-40.00
2023-03-08T09:57:04.550Z,-40.00
2023-03-08T09:58:04.551Z,-40.00
2023-03-08T09:59:03.970Z,-40.00
2023-03-08T10:00:03.848Z,-40.00
2023-03-08T10:01:04.588Z,-40.00
2023-03-08T10:02:03.821Z,-40.00
2023-03-08T10:03:04.498Z,-40.00
2023-03-08T10:04:04.600Z,-40.00
2023-03-08T10:05:13.303Z,-40.00
2023-03-08T10:06:05.469Z,-40.00
2023-03-08T10:07:03.769Z,-40.00
2023-03-08T10:08:04.427Z,-40.00
2023-03-08T10:09:04.440Z,-40.00
2023-03-08T10:10:04.419Z,-40.00
2023-03-08T10:11:04.416Z,-40.00
2023-03-08T10:12:05.716Z,-40.00
2023-03-08T10:13:04.376Z,-40.00
2023-03-08T10:14:03.682Z,-40.00
2023-03-08T10:15:03.698Z,-39.94
2023-03-08T10:16:04.374Z,-40.00
2023-03-08T10:17:04.383Z,-40.00
2023-03-08T10:18:04.326Z,-39.94
2023-03-08T10:19:04.335Z,-40.00
2023-03-08T10:20:04.316Z,-40.00
2023-03-08T10:21:04.317Z,-40.00
2023-03-08T10:22:04.298Z,-39.94
2023-03-08T10:23:03.622Z,-40.00
2023-03-08T10:24:04.280Z,-40.00
2023-03-08T10:25:03.569Z,-40.00
2023-03-08T10:26:04.250Z,-40.00
2023-03-08T10:27:04.915Z,-39.94
2023-03-08T10:28:04.211Z,-40.00
2023-03-08T10:29:04.220Z,-40.00
2023-03-08T10:30:04.209Z,-39.98
2023-03-08T10:31:03.539Z,-40.00
2023-03-08T10:32:03.517Z,-39.94
2023-03-08T10:33:04.162Z,-40.00
2023-03-08T10:34:04.170Z,-39.94
2023-03-08T10:35:03.536Z,-40.00
2023-03-08T10:36:04.228Z,-40.00
2023-03-08T10:37:03.448Z,-40.00
2023-03-08T10:38:03.457Z,-39.94
2023-03-08T10:39:05.108Z,-40.00
2023-03-08T10:40:04.111Z,-40.00
2023-03-08T10:41:04.093Z,-39.94
2023-03-08T10:42:04.095Z,-39.94
2023-03-08T10:43:03.396Z,-40.00
2023-03-08T10:44:04.108Z,-39.96
2023-03-08T10:45:04.069Z,-40.00
2023-03-08T10:46:04.102Z,-40.00
2023-03-08T10:47:03.341Z,-40.00
2023-03-08T10:48:04.039Z,-40.00
2023-03-08T10:49:03.317Z,-40.00
2023-03-08T10:50:04.011Z,-40.00
2023-03-08T10:51:03.994Z,-40.00
2023-03-08T10:52:03.991Z,-40.00
2023-03-08T10:53:03.310Z,-39.94
2023-03-08T10:54:03.266Z,-40.00
2023-03-08T10:55:03.270Z,-40.00
2023-03-08T10:56:03.945Z,-40.00
2023-03-08T10:57:03.936Z,-40.00
2023-03-08T10:58:03.248Z,-40.00
2023-03-08T10:59:03.928Z,-40.00
2023-03-08T11:00:03.891Z,-40.00
2023-03-08T11:01:03.880Z,-39.94
2023-03-08T11:02:03.877Z,-40.00
2023-03-08T11:03:03.841Z,-40.00
2023-03-08T11:04:03.851Z,-40.00
2023-03-08T11:05:03.861Z,-40.00
2023-03-08T11:06:03.212Z,-39.94
2023-03-08T11:07:03.130Z,-40.00
2023-03-08T11:08:03.141Z,-40.00
2023-03-08T11:09:03.801Z,-29.69
2023-03-08T11:10:03.783Z,-40.00
2023-03-08T11:11:03.817Z,-39.94
2023-03-08T11:12:03.800Z,-40.00
2023-03-08T11:13:03.741Z,-40.00
2023-03-08T11:14:03.745Z,-40.00
2023-03-08T11:15:03.047Z,-40.00
2023-03-08T11:16:03.173Z,-40.00
2023-03-08T11:17:03.725Z,-40.00
2023-03-08T11:18:03.995Z,-40.00
2023-03-08T11:19:03.765Z,-40.00
2023-03-08T11:20:02.983Z,-40.00
2023-03-08T11:21:03.670Z,-40.00
2023-03-08T11:22:03.693Z,-40.00
2023-03-08T11:23:02.978Z,-40.00
2023-03-08T11:24:03.666Z,-40.00
2023-03-08T11:25:03.622Z,-40.00
2023-03-08T11:26:03.614Z,-40.00
2023-03-08T11:27:03.685Z,-40.00
2023-03-08T11:28:02.946Z,-40.00
2023-03-08T11:29:03.703Z,-39.94
2023-03-08T11:30:03.575Z,-40.00
2023-03-08T11:31:03.584Z,-40.00
2023-03-08T11:32:03.553Z,-40.00
2023-03-08T11:33:03.127Z,-40.00
2023-03-08T11:34:02.918Z,-40.00
2023-03-08T11:35:03.535Z,-40.00
2023-03-08T11:36:02.832Z,-40.00
2023-03-08T11:37:02.828Z,-39.94
2023-03-08T11:38:03.497Z,-40.00
2023-03-08T11:39:02.814Z,-39.94
2023-03-08T11:40:03.467Z,-40.00
2023-03-08T11:41:03.456Z,-40.00
2023-03-08T11:42:02.756Z,-40.00
2023-03-08T11:43:02.753Z,-40.00
2023-03-08T11:44:03.398Z,-40.00
2023-03-08T11:45:03.411Z,-40.00
2023-03-08T11:46:03.408Z,-39.94
2023-03-08T11:47:03.408Z,-40.00
2023-03-08T11:48:02.705Z,42.50
2023-03-08T11:49:02.725Z,-40.00
2023-03-08T11:50:03.349Z,-39.94
2023-03-08T11:51:03.362Z,-40.00
2023-03-08T11:52:03.340Z,-40.00
2023-03-08T11:53:02.639Z,-40.00
2023-03-08T11:54:02.657Z,-40.00
2023-03-08T11:55:03.349Z,-39.94
2023-03-08T11:56:03.297Z,-40.00
2023-03-08T11:57:03.284Z,-40.00
2023-03-08T11:58:03.272Z,-40.00
2023-03-08T11:59:03.239Z,-40.00
2023-03-08T12:00:03.250Z,-40.00
2023-03-08T12:01:02.548Z,-40.00
2023-03-08T12:02:03.224Z,-40.00
2023-03-08T12:03:03.241Z,-40.00
2023-03-08T12:04:04.270Z,-40.00
2023-03-08T12:05:02.661Z,-39.94
2023-03-08T12:06:03.304Z,-39.94
2023-03-08T12:07:02.626Z,-40.00
2023-03-08T12:08:03.144Z,-40.00
2023-03-08T12:09:03.155Z,-40.00
2023-03-08T12:10:03.187Z,-39.94
2023-03-08T12:11:02.486Z,-40.00
2023-03-08T12:12:03.621Z,-39.94
2023-03-08T12:13:03.107Z,-39.94
2023-03-08T12:14:03.079Z,-40.00
2023-03-08T12:15:03.127Z,-40.00
2023-03-08T12:16:03.120Z,-40.00
2023-03-08T12:17:02.482Z,-40.00
2023-03-08T12:18:04.160Z,-40.00
2023-03-08T12:19:03.025Z,-40.00
2023-03-08T12:20:03.026Z,-40.00
2023-03-08T12:21:03.022Z,-39.94
2023-03-08T12:22:02.312Z,-40.00
2023-03-08T12:23:02.380Z,-39.94
2023-03-08T12:24:03.973Z,-40.00
2023-03-08T12:25:02.341Z,-40.00
2023-03-08T12:26:02.965Z,-39.94
2023-03-08T12:27:02.956Z,-40.00
2023-03-08T12:28:02.993Z,-40.00
2023-03-08T12:29:02.919Z,-39.94
2023-03-08T12:30:02.932Z,-40.00
2023-03-08T12:31:02.937Z,-39.94
2023-03-08T12:32:02.936Z,-40.00
2023-03-08T12:33:02.389Z,-40.00
2023-03-08T12:34:02.864Z,-39.94